Hauptseite
METAR-TAF:

METAR-TAF

Flughäfen :

Quakertown Airport

Quakertown, Pennsylvania, Vereinigte Staaten

Breite: 40-26-06N, Länge: 075-22-54W, Höhe: 160 m

Beobachtung

Neuester Wetterbericht von vor 26 Minuten, um 16:35 UTC
Wind 3 kt aus unterschiedlichen Richtungen
Temperatur 20°C
Luftfeuchtigkeit 100%
Luftdruck 1007 hPa
Sichtweite: 9.7 km
Leicht bewölkt in der Höhe von 200 ft
Aufgelockert bewölkt in der Höhe von 1400 ft
Geschlossene Wolkendecke in der Höhe von 4600 ft
feuchter Dunst

METAR: KUKT 031635Z AUTO VRB03KT 6SM BR FEW002 SCT014 OVC046 20/20 A2973 RMK A01

Zeit: 13:01 (17:01 UTC)


TAF: fehlend

Wetterbeobachtungen und Prognosen von mehr als 4000 Flughäfen (METAR und TAF Bericht).

Die verfügbaren Stationen werden durch gelbe und rote Markierungen auf der Karte dargestellt.

Führen Sie die Maus auf sie, um den Namen der Station zu sehen.

Darauf klicken, um die Beobachtung von Wetterbeobachtungen und Prognosen zu sehen.

Um die Karte zu ändern : klicken Sie auf den grünen Tasten mit einem schwarzen Kreuz Zum Vergrößern, auf den grünen Button mit einem Gedankenstrich zu verkleinern, oder auf die grünen Pfeile für benachbarte Karten.


METAR-TAF: